sensor_id;sensor_type;location;lat;lon;timestamp;P1;durP1;ratioP1;P2;durP2;ratioP2
47483;SDS011;54076;50.322;18.650;2024-01-30T00:00:36;29.90;;;11.30;;
47483;SDS011;54076;50.322;18.650;2024-01-30T00:05:37;31.10;;;11.60;;
47483;SDS011;54076;50.322;18.650;2024-01-30T00:10:38;30.20;;;11.60;;
47483;SDS011;54076;50.322;18.650;2024-01-30T00:15:38;26.10;;;10.10;;
47483;SDS011;54076;50.322;18.650;2024-01-30T00:20:40;27.40;;;10.20;;
47483;SDS011;54076;50.322;18.650;2024-01-30T00:25:41;23.30;;;10.30;;
47483;SDS011;54076;50.322;18.650;2024-01-30T00:30:42;32.20;;;11.40;;
47483;SDS011;54076;50.322;18.650;2024-01-30T00:35:43;26.60;;;10.30;;
47483;SDS011;54076;50.322;18.650;2024-01-30T00:40:44;26.90;;;9.90;;
47483;SDS011;54076;50.322;18.650;2024-01-30T00:45:45;23.60;;;10.00;;
47483;SDS011;54076;50.322;18.650;2024-01-30T00:50:46;30.60;;;11.00;;
47483;SDS011;54076;50.322;18.650;2024-01-30T00:55:47;26.20;;;10.50;;
47483;SDS011;54076;50.322;18.650;2024-01-30T01:00:48;25.30;;;9.30;;
47483;SDS011;54076;50.322;18.650;2024-01-30T01:05:49;21.40;;;9.10;;
47483;SDS011;54076;50.322;18.650;2024-01-30T01:10:50;26.10;;;9.40;;
47483;SDS011;54076;50.322;18.650;2024-01-30T01:15:51;29.40;;;11.60;;
47483;SDS011;54076;50.322;18.650;2024-01-30T01:20:52;27.80;;;10.70;;
47483;SDS011;54076;50.322;18.650;2024-01-30T01:25:53;25.70;;;10.80;;
47483;SDS011;54076;50.322;18.650;2024-01-30T01:30:55;25.90;;;10.40;;
47483;SDS011;54076;50.322;18.650;2024-01-30T01:36:00;26.80;;;10.60;;
47483;SDS011;54076;50.322;18.650;2024-01-30T01:41:03;22.10;;;8.70;;
47483;SDS011;54076;50.322;18.650;2024-01-30T01:46:05;19.90;;;8.50;;
47483;SDS011;54076;50.322;18.650;2024-01-30T01:51:07;16.80;;;7.90;;
47483;SDS011;54076;50.322;18.650;2024-01-30T01:56:09;19.10;;;7.90;;
47483;SDS011;54076;50.322;18.650;2024-01-30T02:01:11;18.40;;;7.90;;
47483;SDS011;54076;50.322;18.650;2024-01-30T02:06:14;20.40;;;7.90;;
47483;SDS011;54076;50.322;18.650;2024-01-30T02:11:15;19.50;;;7.90;;
47483;SDS011;54076;50.322;18.650;2024-01-30T02:16:17;21.90;;;8.30;;
47483;SDS011;54076;50.322;18.650;2024-01-30T02:21:18;21.50;;;7.60;;
47483;SDS011;54076;50.322;18.650;2024-01-30T02:26:20;21.80;;;8.80;;
47483;SDS011;54076;50.322;18.650;2024-01-30T02:31:21;16.70;;;7.60;;
47483;SDS011;54076;50.322;18.650;2024-01-30T02:36:22;18.10;;;7.80;;
47483;SDS011;54076;50.322;18.650;2024-01-30T02:41:23;14.40;;;6.90;;
47483;SDS011;54076;50.322;18.650;2024-01-30T02:46:24;15.30;;;7.30;;
47483;SDS011;54076;50.322;18.650;2024-01-30T02:51:25;12.70;;;6.30;;
47483;SDS011;54076;50.322;18.650;2024-01-30T02:56:26;17.90;;;6.80;;
47483;SDS011;54076;50.322;18.650;2024-01-30T03:01:26;18.00;;;7.20;;
47483;SDS011;54076;50.322;18.650;2024-01-30T03:06:27;17.40;;;7.00;;
47483;SDS011;54076;50.322;18.650;2024-01-30T03:11:28;15.80;;;6.80;;
47483;SDS011;54076;50.322;18.650;2024-01-30T03:16:29;17.20;;;7.10;;
47483;SDS011;54076;50.322;18.650;2024-01-30T03:21:30;18.80;;;6.30;;
47483;SDS011;54076;50.322;18.650;2024-01-30T03:26:31;17.20;;;6.50;;
47483;SDS011;54076;50.322;18.650;2024-01-30T03:31:32;16.20;;;6.00;;
47483;SDS011;54076;50.322;18.650;2024-01-30T03:36:33;14.70;;;6.40;;
47483;SDS011;54076;50.322;18.650;2024-01-30T03:41:35;14.10;;;7.10;;
47483;SDS011;54076;50.322;18.650;2024-01-30T03:46:36;14.00;;;6.10;;
47483;SDS011;54076;50.322;18.650;2024-01-30T03:51:37;13.40;;;6.70;;
47483;SDS011;54076;50.322;18.650;2024-01-30T03:56:38;13.90;;;6.00;;
47483;SDS011;54076;50.322;18.650;2024-01-30T04:01:39;13.50;;;6.30;;
47483;SDS011;54076;50.322;18.650;2024-01-30T04:06:40;14.60;;;6.20;;
47483;SDS011;54076;50.322;18.650;2024-01-30T04:11:41;15.20;;;6.00;;
47483;SDS011;54076;50.322;18.650;2024-01-30T04:16:42;12.80;;;5.60;;
47483;SDS011;54076;50.322;18.650;2024-01-30T04:21:43;15.30;;;6.20;;
47483;SDS011;54076;50.322;18.650;2024-01-30T04:26:44;12.90;;;6.10;;
47483;SDS011;54076;50.322;18.650;2024-01-30T04:31:45;13.60;;;5.30;;
47483;SDS011;54076;50.322;18.650;2024-01-30T04:36:46;11.50;;;5.90;;
47483;SDS011;54076;50.322;18.650;2024-01-30T04:41:47;12.60;;;5.70;;
47483;SDS011;54076;50.322;18.650;2024-01-30T04:46:49;11.20;;;5.40;;
47483;SDS011;54076;50.322;18.650;2024-01-30T04:51:49;12.80;;;5.40;;
47483;SDS011;54076;50.322;18.650;2024-01-30T04:56:50;12.10;;;5.70;;
47483;SDS011;54076;50.322;18.650;2024-01-30T05:01:51;14.50;;;5.80;;
47483;SDS011;54076;50.322;18.650;2024-01-30T05:06:53;13.10;;;5.50;;
47483;SDS011;54076;50.322;18.650;2024-01-30T05:11:54;11.60;;;5.50;;
47483;SDS011;54076;50.322;18.650;2024-01-30T05:16:55;11.90;;;5.80;;
47483;SDS011;54076;50.322;18.650;2024-01-30T05:21:55;14.30;;;5.50;;
47483;SDS011;54076;50.322;18.650;2024-01-30T05:26:56;10.60;;;5.50;;
47483;SDS011;54076;50.322;18.650;2024-01-30T05:31:57;14.30;;;6.00;;
47483;SDS011;54076;50.322;18.650;2024-01-30T05:36:58;12.30;;;5.60;;
47483;SDS011;54076;50.322;18.650;2024-01-30T05:41:59;13.60;;;5.60;;
47483;SDS011;54076;50.322;18.650;2024-01-30T05:47:00;15.80;;;6.30;;
47483;SDS011;54076;50.322;18.650;2024-01-30T05:52:03;11.50;;;5.40;;
47483;SDS011;54076;50.322;18.650;2024-01-30T05:57:04;11.50;;;5.30;;
47483;SDS011;54076;50.322;18.650;2024-01-30T06:02:06;12.90;;;6.10;;
47483;SDS011;54076;50.322;18.650;2024-01-30T06:07:06;16.00;;;6.40;;
47483;SDS011;54076;50.322;18.650;2024-01-30T06:12:08;11.90;;;5.20;;
47483;SDS011;54076;50.322;18.650;2024-01-30T06:17:12;14.60;;;5.70;;
47483;SDS011;54076;50.322;18.650;2024-01-30T06:22:13;15.30;;;6.00;;
47483;SDS011;54076;50.322;18.650;2024-01-30T06:27:15;16.20;;;6.50;;
47483;SDS011;54076;50.322;18.650;2024-01-30T06:32:16;12.00;;;6.00;;
47483;SDS011;54076;50.322;18.650;2024-01-30T06:37:17;14.50;;;6.50;;
47483;SDS011;54076;50.322;18.650;2024-01-30T06:42:18;14.20;;;7.20;;
47483;SDS011;54076;50.322;18.650;2024-01-30T06:47:20;16.00;;;7.20;;
47483;SDS011;54076;50.322;18.650;2024-01-30T06:52:21;18.10;;;6.60;;
47483;SDS011;54076;50.322;18.650;2024-01-30T06:57:22;17.90;;;7.10;;
47483;SDS011;54076;50.322;18.650;2024-01-30T07:02:23;15.30;;;6.30;;
47483;SDS011;54076;50.322;18.650;2024-01-30T07:07:24;13.50;;;6.10;;
47483;SDS011;54076;50.322;18.650;2024-01-30T07:12:25;14.20;;;7.10;;
47483;SDS011;54076;50.322;18.650;2024-01-30T07:17:26;21.30;;;8.10;;
47483;SDS011;54076;50.322;18.650;2024-01-30T07:22:28;18.00;;;8.00;;
47483;SDS011;54076;50.322;18.650;2024-01-30T07:27:29;16.40;;;7.20;;
47483;SDS011;54076;50.322;18.650;2024-01-30T07:32:29;16.80;;;7.20;;
47483;SDS011;54076;50.322;18.650;2024-01-30T07:37:30;19.50;;;7.30;;
47483;SDS011;54076;50.322;18.650;2024-01-30T07:42:32;16.00;;;7.00;;
47483;SDS011;54076;50.322;18.650;2024-01-30T07:47:33;14.80;;;7.10;;
47483;SDS011;54076;50.322;18.650;2024-01-30T07:52:35;15.70;;;6.10;;
47483;SDS011;54076;50.322;18.650;2024-01-30T07:57:38;16.90;;;7.10;;
47483;SDS011;54076;50.322;18.650;2024-01-30T08:02:40;17.50;;;7.30;;
47483;SDS011;54076;50.322;18.650;2024-01-30T08:07:41;13.70;;;7.10;;
47483;SDS011;54076;50.322;18.650;2024-01-30T08:12:43;15.70;;;6.50;;
47483;SDS011;54076;50.322;18.650;2024-01-30T08:17:44;13.10;;;5.90;;
47483;SDS011;54076;50.322;18.650;2024-01-30T08:22:45;12.90;;;6.20;;
47483;SDS011;54076;50.322;18.650;2024-01-30T08:27:46;16.20;;;6.30;;
47483;SDS011;54076;50.322;18.650;2024-01-30T08:32:47;16.70;;;6.10;;
47483;SDS011;54076;50.322;18.650;2024-01-30T08:37:48;14.50;;;6.70;;
47483;SDS011;54076;50.322;18.650;2024-01-30T08:42:49;17.90;;;6.30;;
47483;SDS011;54076;50.322;18.650;2024-01-30T08:47:50;15.50;;;6.40;;
47483;SDS011;54076;50.322;18.650;2024-01-30T08:52:51;19.30;;;6.80;;
47483;SDS011;54076;50.322;18.650;2024-01-30T08:57:52;13.90;;;6.20;;
47483;SDS011;54076;50.322;18.650;2024-01-30T09:02:53;13.50;;;6.30;;
47483;SDS011;54076;50.322;18.650;2024-01-30T09:07:54;18.70;;;6.60;;
47483;SDS011;54076;50.322;18.650;2024-01-30T09:12:55;15.00;;;6.20;;
47483;SDS011;54076;50.322;18.650;2024-01-30T09:17:56;15.20;;;6.90;;
47483;SDS011;54076;50.322;18.650;2024-01-30T09:22:57;14.40;;;6.30;;
47483;SDS011;54076;50.322;18.650;2024-01-30T09:27:58;16.30;;;6.50;;
47483;SDS011;54076;50.322;18.650;2024-01-30T09:32:59;15.00;;;5.80;;
47483;SDS011;54076;50.322;18.650;2024-01-30T09:38:01;13.00;;;5.90;;
47483;SDS011;54076;50.322;18.650;2024-01-30T09:43:01;13.80;;;5.90;;
47483;SDS011;54076;50.322;18.650;2024-01-30T09:48:03;14.30;;;6.00;;
47483;SDS011;54076;50.322;18.650;2024-01-30T09:53:04;12.90;;;5.90;;
47483;SDS011;54076;50.322;18.650;2024-01-30T09:58:07;12.40;;;5.80;;
47483;SDS011;54076;50.322;18.650;2024-01-30T10:03:09;16.70;;;5.80;;
47483;SDS011;54076;50.322;18.650;2024-01-30T10:08:10;13.10;;;5.30;;
47483;SDS011;54076;50.322;18.650;2024-01-30T10:13:10;13.00;;;5.90;;
47483;SDS011;54076;50.322;18.650;2024-01-30T10:18:11;15.10;;;5.80;;
47483;SDS011;54076;50.322;18.650;2024-01-30T10:23:12;12.80;;;5.40;;
47483;SDS011;54076;50.322;18.650;2024-01-30T10:28:13;15.60;;;6.10;;
47483;SDS011;54076;50.322;18.650;2024-01-30T10:33:14;15.20;;;6.60;;
47483;SDS011;54076;50.322;18.650;2024-01-30T10:38:15;13.70;;;6.40;;
47483;SDS011;54076;50.322;18.650;2024-01-30T10:43:20;14.20;;;5.60;;
47483;SDS011;54076;50.322;18.650;2024-01-30T10:48:24;12.90;;;6.10;;
47483;SDS011;54076;50.322;18.650;2024-01-30T10:53:30;15.60;;;6.60;;
47483;SDS011;54076;50.322;18.650;2024-01-30T10:58:31;15.30;;;6.10;;
47483;SDS011;54076;50.322;18.650;2024-01-30T11:03:33;12.70;;;6.30;;
47483;SDS011;54076;50.322;18.650;2024-01-30T11:08:36;18.10;;;7.40;;
47483;SDS011;54076;50.322;18.650;2024-01-30T11:13:37;12.60;;;5.70;;
47483;SDS011;54076;50.322;18.650;2024-01-30T11:18:38;15.10;;;6.10;;
47483;SDS011;54076;50.322;18.650;2024-01-30T11:23:39;12.50;;;5.80;;
47483;SDS011;54076;50.322;18.650;2024-01-30T11:28:40;12.20;;;5.40;;
47483;SDS011;54076;50.322;18.650;2024-01-30T11:33:41;13.70;;;5.30;;
47483;SDS011;54076;50.322;18.650;2024-01-30T11:38:42;12.00;;;6.00;;
47483;SDS011;54076;50.322;18.650;2024-01-30T11:43:53;14.70;;;6.20;;
47483;SDS011;54076;50.322;18.650;2024-01-30T11:48:54;17.40;;;7.90;;
47483;SDS011;54076;50.322;18.650;2024-01-30T11:53:55;13.60;;;6.20;;
47483;SDS011;54076;50.322;18.650;2024-01-30T11:58:56;11.10;;;6.00;;
47483;SDS011;54076;50.322;18.650;2024-01-30T12:03:58;12.60;;;5.40;;
47483;SDS011;54076;50.322;18.650;2024-01-30T12:09:01;14.20;;;6.40;;
47483;SDS011;54076;50.322;18.650;2024-01-30T12:14:05;12.20;;;5.60;;
47483;SDS011;54076;50.322;18.650;2024-01-30T12:19:06;12.10;;;5.60;;
47483;SDS011;54076;50.322;18.650;2024-01-30T12:24:07;32.20;;;5.90;;
47483;SDS011;54076;50.322;18.650;2024-01-30T12:29:08;10.50;;;5.00;;
47483;SDS011;54076;50.322;18.650;2024-01-30T12:34:09;11.50;;;5.40;;
47483;SDS011;54076;50.322;18.650;2024-01-30T12:39:11;15.60;;;6.90;;
47483;SDS011;54076;50.322;18.650;2024-01-30T12:44:15;12.60;;;5.70;;
47483;SDS011;54076;50.322;18.650;2024-01-30T12:49:15;11.80;;;5.30;;
47483;SDS011;54076;50.322;18.650;2024-01-30T12:54:16;12.80;;;5.50;;
47483;SDS011;54076;50.322;18.650;2024-01-30T12:59:17;12.60;;;5.80;;
47483;SDS011;54076;50.322;18.650;2024-01-30T13:04:18;11.90;;;5.30;;
47483;SDS011;54076;50.322;18.650;2024-01-30T13:09:19;11.00;;;5.30;;
47483;SDS011;54076;50.322;18.650;2024-01-30T13:14:21;10.60;;;5.20;;
47483;SDS011;54076;50.322;18.650;2024-01-30T13:19:21;11.80;;;5.70;;
47483;SDS011;54076;50.322;18.650;2024-01-30T13:24:22;10.90;;;5.30;;
47483;SDS011;54076;50.322;18.650;2024-01-30T13:29:23;12.60;;;5.50;;
47483;SDS011;54076;50.322;18.650;2024-01-30T13:34:24;11.60;;;5.20;;
47483;SDS011;54076;50.322;18.650;2024-01-30T13:39:25;12.00;;;5.50;;
47483;SDS011;54076;50.322;18.650;2024-01-30T13:44:26;11.90;;;5.40;;
47483;SDS011;54076;50.322;18.650;2024-01-30T13:49:27;12.30;;;5.60;;
47483;SDS011;54076;50.322;18.650;2024-01-30T13:54:28;12.30;;;5.50;;
47483;SDS011;54076;50.322;18.650;2024-01-30T13:59:29;12.30;;;5.50;;
47483;SDS011;54076;50.322;18.650;2024-01-30T14:04:30;12.70;;;5.60;;
47483;SDS011;54076;50.322;18.650;2024-01-30T14:09:31;12.90;;;5.80;;
47483;SDS011;54076;50.322;18.650;2024-01-30T14:14:32;12.40;;;5.60;;
47483;SDS011;54076;50.322;18.650;2024-01-30T14:19:34;11.90;;;5.60;;
47483;SDS011;54076;50.322;18.650;2024-01-30T14:24:36;12.10;;;5.50;;
47483;SDS011;54076;50.322;18.650;2024-01-30T14:29:37;13.30;;;5.50;;
47483;SDS011;54076;50.322;18.650;2024-01-30T14:34:38;12.20;;;5.40;;
47483;SDS011;54076;50.322;18.650;2024-01-30T14:39:39;13.90;;;5.50;;
47483;SDS011;54076;50.322;18.650;2024-01-30T14:44:42;12.10;;;5.80;;
47483;SDS011;54076;50.322;18.650;2024-01-30T14:49:43;13.30;;;5.60;;
47483;SDS011;54076;50.322;18.650;2024-01-30T14:54:44;12.50;;;5.50;;
47483;SDS011;54076;50.322;18.650;2024-01-30T14:59:44;13.70;;;6.00;;
47483;SDS011;54076;50.322;18.650;2024-01-30T15:04:45;13.70;;;5.60;;
47483;SDS011;54076;50.322;18.650;2024-01-30T15:09:46;13.90;;;5.90;;
47483;SDS011;54076;50.322;18.650;2024-01-30T15:14:47;14.00;;;6.30;;
47483;SDS011;54076;50.322;18.650;2024-01-30T15:19:51;13.90;;;6.10;;
47483;SDS011;54076;50.322;18.650;2024-01-30T15:24:52;14.70;;;5.90;;
47483;SDS011;54076;50.322;18.650;2024-01-30T15:29:53;11.40;;;5.50;;
47483;SDS011;54076;50.322;18.650;2024-01-30T15:34:54;15.20;;;5.90;;
47483;SDS011;54076;50.322;18.650;2024-01-30T15:39:57;14.60;;;6.50;;
47483;SDS011;54076;50.322;18.650;2024-01-30T15:44:58;12.00;;;5.40;;
47483;SDS011;54076;50.322;18.650;2024-01-30T15:49:59;12.70;;;5.90;;
47483;SDS011;54076;50.322;18.650;2024-01-30T15:55:00;16.50;;;6.40;;
47483;SDS011;54076;50.322;18.650;2024-01-30T16:00:01;13.10;;;6.30;;
47483;SDS011;54076;50.322;18.650;2024-01-30T16:05:02;14.20;;;6.00;;
47483;SDS011;54076;50.322;18.650;2024-01-30T16:10:03;16.20;;;7.10;;
47483;SDS011;54076;50.322;18.650;2024-01-30T16:15:05;15.60;;;6.70;;
47483;SDS011;54076;50.322;18.650;2024-01-30T16:20:07;16.40;;;7.10;;
47483;SDS011;54076;50.322;18.650;2024-01-30T16:25:10;18.10;;;6.80;;
47483;SDS011;54076;50.322;18.650;2024-01-30T16:30:12;16.60;;;6.50;;
47483;SDS011;54076;50.322;18.650;2024-01-30T16:35:13;16.20;;;5.90;;
47483;SDS011;54076;50.322;18.650;2024-01-30T16:40:14;15.80;;;6.70;;
47483;SDS011;54076;50.322;18.650;2024-01-30T16:45:15;14.40;;;5.70;;
47483;SDS011;54076;50.322;18.650;2024-01-30T16:50:16;12.70;;;5.80;;
47483;SDS011;54076;50.322;18.650;2024-01-30T16:55:16;12.90;;;5.50;;
47483;SDS011;54076;50.322;18.650;2024-01-30T17:00:19;10.80;;;5.00;;
47483;SDS011;54076;50.322;18.650;2024-01-30T17:05:20;10.30;;;5.00;;
47483;SDS011;54076;50.322;18.650;2024-01-30T17:10:21;12.80;;;4.90;;
47483;SDS011;54076;50.322;18.650;2024-01-30T17:15:22;13.80;;;5.70;;
47483;SDS011;54076;50.322;18.650;2024-01-30T17:20:22;12.30;;;5.00;;
47483;SDS011;54076;50.322;18.650;2024-01-30T17:25:23;10.90;;;5.50;;
47483;SDS011;54076;50.322;18.650;2024-01-30T17:30:24;12.00;;;5.00;;
47483;SDS011;54076;50.322;18.650;2024-01-30T17:35:25;10.80;;;4.70;;
47483;SDS011;54076;50.322;18.650;2024-01-30T17:40:26;13.20;;;5.70;;
47483;SDS011;54076;50.322;18.650;2024-01-30T17:45:27;11.50;;;5.30;;
47483;SDS011;54076;50.322;18.650;2024-01-30T17:50:28;12.80;;;4.70;;
47483;SDS011;54076;50.322;18.650;2024-01-30T17:55:29;13.10;;;5.50;;
47483;SDS011;54076;50.322;18.650;2024-01-30T18:00:30;12.20;;;5.10;;
47483;SDS011;54076;50.322;18.650;2024-01-30T18:05:31;14.70;;;5.30;;
47483;SDS011;54076;50.322;18.650;2024-01-30T18:10:32;12.80;;;5.70;;
47483;SDS011;54076;50.322;18.650;2024-01-30T18:15:33;11.60;;;4.90;;
47483;SDS011;54076;50.322;18.650;2024-01-30T18:20:34;11.50;;;4.70;;
47483;SDS011;54076;50.322;18.650;2024-01-30T18:25:35;10.40;;;5.10;;
47483;SDS011;54076;50.322;18.650;2024-01-30T18:30:36;11.40;;;5.30;;
47483;SDS011;54076;50.322;18.650;2024-01-30T18:35:38;11.60;;;4.80;;
47483;SDS011;54076;50.322;18.650;2024-01-30T18:40:39;12.70;;;5.10;;
47483;SDS011;54076;50.322;18.650;2024-01-30T18:45:41;11.70;;;5.30;;
47483;SDS011;54076;50.322;18.650;2024-01-30T18:50:42;13.60;;;5.60;;
47483;SDS011;54076;50.322;18.650;2024-01-30T18:55:44;13.90;;;5.00;;
47483;SDS011;54076;50.322;18.650;2024-01-30T19:00:44;13.90;;;5.40;;
47483;SDS011;54076;50.322;18.650;2024-01-30T19:05:46;12.40;;;5.60;;
47483;SDS011;54076;50.322;18.650;2024-01-30T19:10:47;13.90;;;5.80;;
47483;SDS011;54076;50.322;18.650;2024-01-30T19:15:49;13.90;;;5.60;;
47483;SDS011;54076;50.322;18.650;2024-01-30T19:20:50;14.40;;;5.60;;
47483;SDS011;54076;50.322;18.650;2024-01-30T19:25:51;13.70;;;5.50;;
47483;SDS011;54076;50.322;18.650;2024-01-30T19:30:52;12.80;;;5.50;;
47483;SDS011;54076;50.322;18.650;2024-01-30T19:35:54;13.00;;;5.10;;
47483;SDS011;54076;50.322;18.650;2024-01-30T19:40:55;12.10;;;5.10;;
47483;SDS011;54076;50.322;18.650;2024-01-30T19:45:57;13.90;;;5.60;;
47483;SDS011;54076;50.322;18.650;2024-01-30T19:51:00;13.20;;;5.70;;
47483;SDS011;54076;50.322;18.650;2024-01-30T19:56:01;12.60;;;5.00;;
47483;SDS011;54076;50.322;18.650;2024-01-30T20:01:02;11.80;;;5.00;;
47483;SDS011;54076;50.322;18.650;2024-01-30T20:06:03;12.10;;;5.10;;
47483;SDS011;54076;50.322;18.650;2024-01-30T20:11:14;13.50;;;5.00;;
47483;SDS011;54076;50.322;18.650;2024-01-30T20:16:15;11.90;;;5.00;;
47483;SDS011;54076;50.322;18.650;2024-01-30T20:21:16;14.50;;;5.40;;
47483;SDS011;54076;50.322;18.650;2024-01-30T20:26:17;12.00;;;5.10;;
47483;SDS011;54076;50.322;18.650;2024-01-30T20:31:17;11.60;;;4.90;;
47483;SDS011;54076;50.322;18.650;2024-01-30T20:36:18;12.40;;;5.40;;
47483;SDS011;54076;50.322;18.650;2024-01-30T20:41:19;11.60;;;5.40;;
47483;SDS011;54076;50.322;18.650;2024-01-30T20:46:20;11.00;;;4.90;;
47483;SDS011;54076;50.322;18.650;2024-01-30T20:51:21;10.80;;;4.60;;
47483;SDS011;54076;50.322;18.650;2024-01-30T20:56:22;10.30;;;4.90;;
47483;SDS011;54076;50.322;18.650;2024-01-30T21:01:23;12.80;;;4.70;;
47483;SDS011;54076;50.322;18.650;2024-01-30T21:06:24;13.40;;;5.40;;
47483;SDS011;54076;50.322;18.650;2024-01-30T21:11:26;11.50;;;4.90;;
47483;SDS011;54076;50.322;18.650;2024-01-30T21:16:27;13.30;;;5.20;;
47483;SDS011;54076;50.322;18.650;2024-01-30T21:21:28;11.40;;;4.80;;
47483;SDS011;54076;50.322;18.650;2024-01-30T21:26:29;13.40;;;5.40;;
47483;SDS011;54076;50.322;18.650;2024-01-30T21:31:30;11.30;;;5.20;;
47483;SDS011;54076;50.322;18.650;2024-01-30T21:36:31;12.60;;;5.70;;
47483;SDS011;54076;50.322;18.650;2024-01-30T21:41:32;10.70;;;5.10;;
47483;SDS011;54076;50.322;18.650;2024-01-30T21:46:33;15.40;;;6.30;;
47483;SDS011;54076;50.322;18.650;2024-01-30T21:51:34;12.00;;;5.20;;
47483;SDS011;54076;50.322;18.650;2024-01-30T21:56:35;12.60;;;6.00;;
47483;SDS011;54076;50.322;18.650;2024-01-30T22:01:38;11.00;;;5.70;;
47483;SDS011;54076;50.322;18.650;2024-01-30T22:06:38;13.80;;;6.00;;
47483;SDS011;54076;50.322;18.650;2024-01-30T22:11:40;11.60;;;5.80;;
47483;SDS011;54076;50.322;18.650;2024-01-30T22:16:40;15.40;;;6.60;;
47483;SDS011;54076;50.322;18.650;2024-01-30T22:21:41;12.60;;;5.60;;
47483;SDS011;54076;50.322;18.650;2024-01-30T22:26:42;13.10;;;6.40;;
47483;SDS011;54076;50.322;18.650;2024-01-30T22:31:43;12.50;;;5.70;;
47483;SDS011;54076;50.322;18.650;2024-01-30T22:36:44;13.50;;;6.30;;
47483;SDS011;54076;50.322;18.650;2024-01-30T22:41:45;17.20;;;6.20;;
47483;SDS011;54076;50.322;18.650;2024-01-30T22:46:46;15.60;;;6.60;;
47483;SDS011;54076;50.322;18.650;2024-01-30T22:51:47;13.20;;;6.20;;
47483;SDS011;54076;50.322;18.650;2024-01-30T22:56:49;16.30;;;6.00;;
47483;SDS011;54076;50.322;18.650;2024-01-30T23:01:50;14.50;;;6.40;;
47483;SDS011;54076;50.322;18.650;2024-01-30T23:06:52;12.80;;;5.80;;
47483;SDS011;54076;50.322;18.650;2024-01-30T23:11:52;13.60;;;6.30;;
47483;SDS011;54076;50.322;18.650;2024-01-30T23:16:54;14.10;;;6.60;;
47483;SDS011;54076;50.322;18.650;2024-01-30T23:21:55;13.70;;;6.40;;
47483;SDS011;54076;50.322;18.650;2024-01-30T23:26:56;13.20;;;6.50;;
47483;SDS011;54076;50.322;18.650;2024-01-30T23:31:57;15.20;;;6.60;;
47483;SDS011;54076;50.322;18.650;2024-01-30T23:36:58;15.40;;;5.90;;
47483;SDS011;54076;50.322;18.650;2024-01-30T23:41:59;16.40;;;6.40;;
47483;SDS011;54076;50.322;18.650;2024-01-30T23:47:00;13.80;;;6.40;;
47483;SDS011;54076;50.322;18.650;2024-01-30T23:52:01;16.00;;;6.50;;
47483;SDS011;54076;50.322;18.650;2024-01-30T23:57:03;14.90;;;6.30;;
